Dubuisson, Canada
Current Conditions -  °F | °C
As of 9:00 AM on Saturday 25 Oct 2014 (Local Time) from CYVO Reporting Station
Rain Showers Rain Showers  
Wind Chill: 39°   Ceiling: 1100
Heat Index: 45°   Visibility: 10mi
Dew Point: 45°   Wind: 12mph
Humidity: 100%   Direction: 180°S
Pressure: 29.5"   Gusts: NA
Location:  48.1°N, 77.9°W
Report Text: CYVO 251300Z 18010KT 10SM -SHRA SCT009 OVC011 07/07 A2950 RMK SF3SC5 PRESFR SLP003
Loading
Personal Weather Stations






























Interactive Weather Map
Tropical Storm Tracking
New forecast layout! Learn more

10-Day Weather Forecast

Advertisements
Track Severe Weather on mobile